sensor_id;sensor_type;location;lat;lon;timestamp;pressure;altitude;pressure_sealevel;temperature;humidity
60725;BME280;59881;36.722;-4.462;2023-04-02T00:01:37;101259.59;;;19.16;50.63
60725;BME280;59881;36.722;-4.462;2023-04-02T00:04:04;101261.25;;;19.17;50.86
60725;BME280;59881;36.722;-4.462;2023-04-02T00:06:35;101247.38;;;19.13;50.83
60725;BME280;59881;36.722;-4.462;2023-04-02T00:11:37;101249.06;;;19.05;50.91
60725;BME280;59881;36.722;-4.462;2023-04-02T00:14:04;101242.31;;;19.00;50.93
60725;BME280;59881;36.722;-4.462;2023-04-02T00:16:30;101248.63;;;18.99;51.48
60725;BME280;59881;36.722;-4.462;2023-04-02T00:18:57;101240.50;;;19.01;51.71
60725;BME280;59881;36.722;-4.462;2023-04-02T00:21:26;101234.63;;;18.97;51.55
60725;BME280;59881;36.722;-4.462;2023-04-02T00:23:53;101242.06;;;18.94;51.57
60725;BME280;59881;36.722;-4.462;2023-04-02T00:28:45;101239.41;;;18.84;51.77
60725;BME280;59881;36.722;-4.462;2023-04-02T00:31:11;101233.50;;;18.80;51.94
60725;BME280;59881;36.722;-4.462;2023-04-02T00:33:36;101238.25;;;18.77;52.37
60725;BME280;59881;36.722;-4.462;2023-04-02T00:36:04;101234.34;;;18.71;52.26
60725;BME280;59881;36.722;-4.462;2023-04-02T00:38:31;101234.59;;;18.68;52.61
60725;BME280;59881;36.722;-4.462;2023-04-02T00:40:57;101228.97;;;18.61;52.47
60725;BME280;59881;36.722;-4.462;2023-04-02T00:43:24;101235.44;;;18.59;53.07
60725;BME280;59881;36.722;-4.462;2023-04-02T00:45:56;101240.50;;;18.52;53.05
60725;BME280;59881;36.722;-4.462;2023-04-02T00:50:50;101233.22;;;18.45;53.47
60725;BME280;59881;36.722;-4.462;2023-04-02T00:53:24;101237.16;;;18.40;53.79
60725;BME280;59881;36.722;-4.462;2023-04-02T00:55:50;101245.16;;;18.40;53.94
60725;BME280;59881;36.722;-4.462;2023-04-02T01:00:48;101246.69;;;18.43;54.77
60725;BME280;59881;36.722;-4.462;2023-04-02T01:05:43;101243.03;;;18.44;54.92
60725;BME280;59881;36.722;-4.462;2023-04-02T01:15:54;101247.66;;;18.32;54.96
60725;BME280;59881;36.722;-4.462;2023-04-02T01:18:25;101252.28;;;18.30;55.45
60725;BME280;59881;36.722;-4.462;2023-04-02T01:23:44;101245.41;;;18.37;56.25
60725;BME280;59881;36.722;-4.462;2023-04-02T01:31:19;101247.38;;;18.26;55.80
60725;BME280;59881;36.722;-4.462;2023-04-02T01:33:45;101246.97;;;18.20;56.11
60725;BME280;59881;36.722;-4.462;2023-04-02T01:39:06;101245.97;;;18.12;56.35
60725;BME280;59881;36.722;-4.462;2023-04-02T01:44:19;101241.03;;;18.07;56.88
60725;BME280;59881;36.722;-4.462;2023-04-02T01:46:47;101247.75;;;18.02;56.64
60725;BME280;59881;36.722;-4.462;2023-04-02T01:49:13;101249.88;;;17.98;56.99
60725;BME280;59881;36.722;-4.462;2023-04-02T01:51:41;101249.41;;;17.93;57.14
60725;BME280;59881;36.722;-4.462;2023-04-02T01:54:07;101245.19;;;17.90;57.10
60725;BME280;59881;36.722;-4.462;2023-04-02T01:56:32;101253.47;;;17.87;57.24
60725;BME280;59881;36.722;-4.462;2023-04-02T01:58:59;101255.69;;;17.82;57.28
60725;BME280;59881;36.722;-4.462;2023-04-02T02:01:50;101249.66;;;17.80;57.36
60725;BME280;59881;36.722;-4.462;2023-04-02T02:04:13;101249.91;;;17.77;57.63
60725;BME280;59881;36.722;-4.462;2023-04-02T02:06:38;101253.41;;;17.77;57.92
60725;BME280;59881;36.722;-4.462;2023-04-02T02:09:04;101249.91;;;17.77;57.97
60725;BME280;59881;36.722;-4.462;2023-04-02T02:11:31;101246.53;;;17.75;58.02
60725;BME280;59881;36.722;-4.462;2023-04-02T02:16:23;101247.91;;;17.69;58.36
60725;BME280;59881;36.722;-4.462;2023-04-02T02:18:52;101254.38;;;17.67;58.50
60725;BME280;59881;36.722;-4.462;2023-04-02T02:23:53;101257.69;;;17.59;58.72
60725;BME280;59881;36.722;-4.462;2023-04-02T02:26:19;101253.75;;;17.53;58.81
60725;BME280;59881;36.722;-4.462;2023-04-02T02:28:46;101254.13;;;17.49;58.93
60725;BME280;59881;36.722;-4.462;2023-04-02T02:31:18;101254.53;;;17.44;59.16
60725;BME280;59881;36.722;-4.462;2023-04-02T02:33:50;101251.03;;;17.44;59.36
60725;BME280;59881;36.722;-4.462;2023-04-02T02:39:20;101247.94;;;17.38;59.40
60725;BME280;59881;36.722;-4.462;2023-04-02T02:41:51;101247.78;;;17.40;59.89
60725;BME280;59881;36.722;-4.462;2023-04-02T02:44:19;101256.47;;;17.42;60.00
60725;BME280;59881;36.722;-4.462;2023-04-02T02:46:50;101248.75;;;17.39;59.82
60725;BME280;59881;36.722;-4.462;2023-04-02T02:49:18;101243.84;;;17.34;59.76
60725;BME280;59881;36.722;-4.462;2023-04-02T02:51:47;101251.38;;;17.29;60.00
60725;BME280;59881;36.722;-4.462;2023-04-02T02:54:14;101253.59;;;17.24;60.01
60725;BME280;59881;36.722;-4.462;2023-04-02T02:56:44;101256.53;;;17.21;60.39
60725;BME280;59881;36.722;-4.462;2023-04-02T02:59:12;101246.72;;;17.22;60.69
60725;BME280;59881;36.722;-4.462;2023-04-02T03:01:39;101242.09;;;17.24;60.88
60725;BME280;59881;36.722;-4.462;2023-04-02T03:04:05;101245.59;;;17.24;60.85
60725;BME280;59881;36.722;-4.462;2023-04-02T03:06:31;101248.25;;;17.24;60.99
60725;BME280;59881;36.722;-4.462;2023-04-02T03:09:02;101250.09;;;17.24;60.92
60725;BME280;59881;36.722;-4.462;2023-04-02T03:13:59;101248.81;;;17.18;61.15
60725;BME280;59881;36.722;-4.462;2023-04-02T03:16:29;101249.75;;;17.17;61.11
60725;BME280;59881;36.722;-4.462;2023-04-02T03:19:09;101248.41;;;17.23;61.58
60725;BME280;59881;36.722;-4.462;2023-04-02T03:21:46;101236.50;;;17.27;61.28
60725;BME280;59881;36.722;-4.462;2023-04-02T03:26:59;101244.31;;;17.19;61.11
60725;BME280;59881;36.722;-4.462;2023-04-02T03:29:27;101253.25;;;17.17;61.28
60725;BME280;59881;36.722;-4.462;2023-04-02T03:31:58;101248.22;;;17.14;61.47
60725;BME280;59881;36.722;-4.462;2023-04-02T03:34:29;101242.31;;;17.11;61.29
60725;BME280;59881;36.722;-4.462;2023-04-02T03:39:41;101244.78;;;17.03;61.71
60725;BME280;59881;36.722;-4.462;2023-04-02T03:49:57;101252.38;;;16.86;61.71
60725;BME280;59881;36.722;-4.462;2023-04-02T03:52:25;101249.81;;;16.85;61.98
60725;BME280;59881;36.722;-4.462;2023-04-02T03:54:52;101260.75;;;16.82;62.08
60725;BME280;59881;36.722;-4.462;2023-04-02T03:57:42;101263.41;;;16.82;62.57
60725;BME280;59881;36.722;-4.462;2023-04-02T04:00:12;101251.91;;;16.81;62.65
60725;BME280;59881;36.722;-4.462;2023-04-02T04:02:48;101249.75;;;16.75;62.50
60725;BME280;59881;36.722;-4.462;2023-04-02T04:05:19;101245.53;;;16.72;62.66
60725;BME280;59881;36.722;-4.462;2023-04-02T04:07:47;101253.63;;;16.71;62.72
60725;BME280;59881;36.722;-4.462;2023-04-02T04:10:19;101242.25;;;16.69;62.70
60725;BME280;59881;36.722;-4.462;2023-04-02T04:12:47;101244.09;;;16.68;62.91
60725;BME280;59881;36.722;-4.462;2023-04-02T04:15:26;101245.19;;;16.66;63.06
60725;BME280;59881;36.722;-4.462;2023-04-02T04:20:46;101251.47;;;16.65;63.43
60725;BME280;59881;36.722;-4.462;2023-04-02T04:26:03;101252.72;;;16.61;63.52
60725;BME280;59881;36.722;-4.462;2023-04-02T04:31:37;101267.69;;;16.62;63.96
60725;BME280;59881;36.722;-4.462;2023-04-02T04:34:10;101273.00;;;16.62;63.63
60725;BME280;59881;36.722;-4.462;2023-04-02T04:36:49;101260.69;;;16.61;63.79
60725;BME280;59881;36.722;-4.462;2023-04-02T04:39:29;101253.28;;;16.64;63.63
60725;BME280;59881;36.722;-4.462;2023-04-02T04:41:59;101254.28;;;16.63;63.22
60725;BME280;59881;36.722;-4.462;2023-04-02T04:47:00;101254.50;;;16.60;63.35
60725;BME280;59881;36.722;-4.462;2023-04-02T04:49:29;101244.13;;;16.57;63.23
60725;BME280;59881;36.722;-4.462;2023-04-02T04:52:06;101257.31;;;16.59;63.43
60725;BME280;59881;36.722;-4.462;2023-04-02T04:54:35;101253.22;;;16.54;63.17
60725;BME280;59881;36.722;-4.462;2023-04-02T04:57:01;101246.72;;;16.47;63.15
60725;BME280;59881;36.722;-4.462;2023-04-02T04:59:43;101238.41;;;16.41;63.18
60725;BME280;59881;36.722;-4.462;2023-04-02T05:02:13;101241.47;;;16.36;63.18
60725;BME280;59881;36.722;-4.462;2023-04-02T05:04:42;101246.88;;;16.34;63.65
60725;BME280;59881;36.722;-4.462;2023-04-02T05:09:55;101252.09;;;16.36;64.01
60725;BME280;59881;36.722;-4.462;2023-04-02T05:14:57;101249.28;;;16.38;63.99
60725;BME280;59881;36.722;-4.462;2023-04-02T05:17:30;101252.94;;;16.37;63.91
60725;BME280;59881;36.722;-4.462;2023-04-02T05:22:35;101254.75;;;16.36;64.14
60725;BME280;59881;36.722;-4.462;2023-04-02T05:25:11;101264.66;;;16.34;64.21
60725;BME280;59881;36.722;-4.462;2023-04-02T05:32:49;101276.25;;;16.33;64.36
60725;BME280;59881;36.722;-4.462;2023-04-02T05:35:18;101278.78;;;16.34;64.33
60725;BME280;59881;36.722;-4.462;2023-04-02T05:37:44;101272.63;;;16.34;64.20
60725;BME280;59881;36.722;-4.462;2023-04-02T05:40:12;101271.78;;;16.33;64.02
60725;BME280;59881;36.722;-4.462;2023-04-02T05:42:39;101283.41;;;16.32;64.15
60725;BME280;59881;36.722;-4.462;2023-04-02T05:47:38;101288.09;;;16.29;63.95
60725;BME280;59881;36.722;-4.462;2023-04-02T05:52:34;101281.84;;;16.30;64.30
60725;BME280;59881;36.722;-4.462;2023-04-02T05:57:32;101295.34;;;16.27;64.71
60725;BME280;59881;36.722;-4.462;2023-04-02T06:00:03;101293.56;;;16.27;64.75
60725;BME280;59881;36.722;-4.462;2023-04-02T06:02:31;101289.19;;;16.26;65.21
60725;BME280;59881;36.722;-4.462;2023-04-02T06:07:30;101290.19;;;16.25;65.53
60725;BME280;59881;36.722;-4.462;2023-04-02T06:10:03;101290.19;;;16.25;65.52
60725;BME280;59881;36.722;-4.462;2023-04-02T06:15:28;101290.28;;;16.35;65.31
60725;BME280;59881;36.722;-4.462;2023-04-02T06:18:05;101284.06;;;16.46;65.16
60725;BME280;59881;36.722;-4.462;2023-04-02T06:20:32;101289.56;;;16.65;64.77
60725;BME280;59881;36.722;-4.462;2023-04-02T06:25:33;101289.22;;;18.64;61.62
60725;BME280;59881;36.722;-4.462;2023-04-02T06:28:02;101284.31;;;20.02;57.01
60725;BME280;59881;36.722;-4.462;2023-04-02T06:30:34;101282.13;;;20.61;54.15
60725;BME280;59881;36.722;-4.462;2023-04-02T06:33:01;101279.94;;;21.53;51.36
60725;BME280;59881;36.722;-4.462;2023-04-02T06:35:26;101280.28;;;22.51;48.19
60725;BME280;59881;36.722;-4.462;2023-04-02T06:37:52;101273.75;;;22.95;45.92
60725;BME280;59881;36.722;-4.462;2023-04-02T06:42:56;101271.94;;;22.87;45.52
60725;BME280;59881;36.722;-4.462;2023-04-02T06:45:29;101283.25;;;23.55;44.09
60725;BME280;59881;36.722;-4.462;2023-04-02T06:47:56;101271.31;;;24.83;41.46
60725;BME280;59881;36.722;-4.462;2023-04-02T06:52:51;101270.00;;;27.20;37.04
60725;BME280;59881;36.722;-4.462;2023-04-02T06:57:46;101279.81;;;28.65;33.72
60725;BME280;59881;36.722;-4.462;2023-04-02T07:02:49;101269.59;;;29.92;31.06
60725;BME280;59881;36.722;-4.462;2023-04-02T07:05:16;101284.88;;;30.32;30.85
60725;BME280;59881;36.722;-4.462;2023-04-02T07:07:42;101285.47;;;30.98;29.46
60725;BME280;59881;36.722;-4.462;2023-04-02T07:10:07;101287.13;;;31.61;28.69
60725;BME280;59881;36.722;-4.462;2023-04-02T07:12:33;101293.22;;;32.11;27.56
60725;BME280;59881;36.722;-4.462;2023-04-02T07:14:58;101294.47;;;32.57;26.99
60725;BME280;59881;36.722;-4.462;2023-04-02T07:17:24;101294.19;;;33.13;26.16
60725;BME280;59881;36.722;-4.462;2023-04-02T07:19:49;101291.19;;;33.38;25.57
60725;BME280;59881;36.722;-4.462;2023-04-02T07:22:18;101291.06;;;33.68;25.20
60725;BME280;59881;36.722;-4.462;2023-04-02T07:24:43;101300.69;;;33.99;24.74
60725;BME280;59881;36.722;-4.462;2023-04-02T07:27:10;101295.41;;;34.38;24.14
60725;BME280;59881;36.722;-4.462;2023-04-02T07:29:35;101306.84;;;34.64;23.60
60725;BME280;59881;36.722;-4.462;2023-04-02T07:32:06;101301.88;;;34.95;23.23
60725;BME280;59881;36.722;-4.462;2023-04-02T07:34:32;101310.44;;;35.37;22.92
60725;BME280;59881;36.722;-4.462;2023-04-02T07:36:57;101304.16;;;36.03;21.87
60725;BME280;59881;36.722;-4.462;2023-04-02T07:39:22;101305.19;;;36.78;21.84
60725;BME280;59881;36.722;-4.462;2023-04-02T07:41:54;101313.06;;;37.07;20.98
60725;BME280;59881;36.722;-4.462;2023-04-02T07:44:20;101305.31;;;37.41;20.65
60725;BME280;59881;36.722;-4.462;2023-04-02T07:46:45;101308.94;;;37.52;20.03
60725;BME280;59881;36.722;-4.462;2023-04-02T07:49:11;101311.22;;;37.60;19.85
60725;BME280;59881;36.722;-4.462;2023-04-02T07:51:36;101305.66;;;38.18;19.39
60725;BME280;59881;36.722;-4.462;2023-04-02T07:54:02;101305.44;;;38.66;18.52
60725;BME280;59881;36.722;-4.462;2023-04-02T07:56:28;101305.06;;;38.06;18.59
60725;BME280;59881;36.722;-4.462;2023-04-02T07:58:54;101307.81;;;37.00;19.13
60725;BME280;59881;36.722;-4.462;2023-04-02T08:01:21;101314.00;;;36.26;20.32
60725;BME280;59881;36.722;-4.462;2023-04-02T08:03:49;101312.50;;;35.47;21.45
60725;BME280;59881;36.722;-4.462;2023-04-02T08:06:15;101317.63;;;35.21;21.07
60725;BME280;59881;36.722;-4.462;2023-04-02T08:08:40;101313.16;;;35.54;21.10
60725;BME280;59881;36.722;-4.462;2023-04-02T08:11:06;101312.69;;;35.40;20.60
60725;BME280;59881;36.722;-4.462;2023-04-02T08:13:32;101315.09;;;35.37;21.14
60725;BME280;59881;36.722;-4.462;2023-04-02T08:15:58;101305.34;;;35.85;20.19
60725;BME280;59881;36.722;-4.462;2023-04-02T08:18:23;101309.34;;;36.26;20.02
60725;BME280;59881;36.722;-4.462;2023-04-02T08:20:49;101307.00;;;36.62;19.73
60725;BME280;59881;36.722;-4.462;2023-04-02T08:23:15;101311.84;;;37.30;19.42
60725;BME280;59881;36.722;-4.462;2023-04-02T08:25:42;101312.16;;;37.86;18.58
60725;BME280;59881;36.722;-4.462;2023-04-02T08:28:07;101307.28;;;38.04;18.34
60725;BME280;59881;36.722;-4.462;2023-04-02T08:30:33;101314.41;;;38.10;18.06
60725;BME280;59881;36.722;-4.462;2023-04-02T08:32:58;101316.72;;;38.54;17.70
60725;BME280;59881;36.722;-4.462;2023-04-02T08:35:23;101316.34;;;39.27;17.41
60725;BME280;59881;36.722;-4.462;2023-04-02T08:37:49;101319.84;;;39.64;16.69
60725;BME280;59881;36.722;-4.462;2023-04-02T08:40:19;101325.75;;;40.02;16.21
60725;BME280;59881;36.722;-4.462;2023-04-02T08:42:50;101322.38;;;40.15;16.15
60725;BME280;59881;36.722;-4.462;2023-04-02T08:45:29;101330.25;;;40.37;16.27
60725;BME280;59881;36.722;-4.462;2023-04-02T08:48:00;101326.44;;;40.97;15.79
60725;BME280;59881;36.722;-4.462;2023-04-02T08:50:29;101329.47;;;41.48;15.49
60725;BME280;59881;36.722;-4.462;2023-04-02T08:52:56;101325.91;;;41.91;14.93
60725;BME280;59881;36.722;-4.462;2023-04-02T09:05:36;101329.91;;;43.35;13.61
60725;BME280;59881;36.722;-4.462;2023-04-02T09:08:03;101333.31;;;43.73;13.40
60725;BME280;59881;36.722;-4.462;2023-04-02T09:10:39;101327.47;;;44.11;13.28
60725;BME280;59881;36.722;-4.462;2023-04-02T09:13:18;101333.16;;;44.29;12.90
60725;BME280;59881;36.722;-4.462;2023-04-02T09:15:46;101326.97;;;44.32;12.62
60725;BME280;59881;36.722;-4.462;2023-04-02T09:18:13;101327.13;;;44.49;12.73
60725;BME280;59881;36.722;-4.462;2023-04-02T09:20:38;101331.34;;;44.69;12.64
60725;BME280;59881;36.722;-4.462;2023-04-02T09:23:04;101327.69;;;44.82;12.20
60725;BME280;59881;36.722;-4.462;2023-04-02T09:25:31;101326.56;;;45.23;12.26
60725;BME280;59881;36.722;-4.462;2023-04-02T09:27:59;101326.31;;;45.42;12.01
60725;BME280;59881;36.722;-4.462;2023-04-02T09:32:54;101325.22;;;45.61;11.92
60725;BME280;59881;36.722;-4.462;2023-04-02T09:35:22;101323.88;;;45.58;11.75
60725;BME280;59881;36.722;-4.462;2023-04-02T09:40:46;101323.72;;;46.85;10.83
60725;BME280;59881;36.722;-4.462;2023-04-02T09:43:13;101327.97;;;47.60;10.70
60725;BME280;59881;36.722;-4.462;2023-04-02T09:45:39;101325.28;;;47.93;10.47
60725;BME280;59881;36.722;-4.462;2023-04-02T09:48:25;101327.09;;;48.10;10.14
60725;BME280;59881;36.722;-4.462;2023-04-02T09:53:36;101315.50;;;48.41;10.47
60725;BME280;59881;36.722;-4.462;2023-04-02T09:58:33;101318.81;;;48.01;10.97
60725;BME280;59881;36.722;-4.462;2023-04-02T10:00:59;101305.63;;;47.90;10.75
60725;BME280;59881;36.722;-4.462;2023-04-02T10:03:26;101309.13;;;47.57;10.88
60725;BME280;59881;36.722;-4.462;2023-04-02T10:06:05;101306.00;;;47.79;10.74
60725;BME280;59881;36.722;-4.462;2023-04-02T10:08:31;101296.91;;;48.24;10.46
60725;BME280;59881;36.722;-4.462;2023-04-02T10:10:58;101296.84;;;48.79;10.26
60725;BME280;59881;36.722;-4.462;2023-04-02T10:13:29;101306.59;;;48.73;9.92
60725;BME280;59881;36.722;-4.462;2023-04-02T10:18:44;101290.56;;;48.94;9.95
60725;BME280;59881;36.722;-4.462;2023-04-02T10:21:11;101297.56;;;49.25;10.07
60725;BME280;59881;36.722;-4.462;2023-04-02T10:23:38;101303.38;;;49.69;9.55
60725;BME280;59881;36.722;-4.462;2023-04-02T10:31:12;101283.06;;;51.24;8.48
60725;BME280;59881;36.722;-4.462;2023-04-02T10:33:42;101282.16;;;52.56;8.24
60725;BME280;59881;36.722;-4.462;2023-04-02T10:36:20;101280.69;;;53.42;7.25
60725;BME280;59881;36.722;-4.462;2023-04-02T10:53:46;101299.38;;;40.64;14.14
60725;BME280;59881;36.722;-4.462;2023-04-02T10:56:16;101381.75;;;36.53;17.41
60725;BME280;59881;36.722;-4.462;2023-04-02T10:58:47;101491.97;;;31.38;26.56
60725;BME280;59881;36.722;-4.462;2023-04-02T11:01:17;101380.19;;;27.11;32.62
60725;BME280;59881;36.722;-4.462;2023-04-02T11:03:46;101401.06;;;25.93;34.47
60725;BME280;59881;36.722;-4.462;2023-04-02T11:06:18;101376.91;;;25.47;35.37
60725;BME280;59881;36.722;-4.462;2023-04-02T11:08:46;101352.84;;;25.23;36.02
60725;BME280;59881;36.722;-4.462;2023-04-02T11:16:05;101395.09;;;24.84;37.86
60725;BME280;59881;36.722;-4.462;2023-04-02T11:18:31;101387.06;;;24.76;38.16
60725;BME280;59881;36.722;-4.462;2023-04-02T11:21:03;101375.50;;;24.67;38.63
60725;BME280;59881;36.722;-4.462;2023-04-02T11:23:30;101387.34;;;24.58;38.76
60725;BME280;59881;36.722;-4.462;2023-04-02T11:28:40;101373.91;;;24.42;39.23
60725;BME280;59881;36.722;-4.462;2023-04-02T11:31:06;101377.34;;;24.35;39.15
60725;BME280;59881;36.722;-4.462;2023-04-02T11:35:57;101387.09;;;24.28;39.60
60725;BME280;59881;36.722;-4.462;2023-04-02T11:40:52;101363.59;;;24.22;40.21
60725;BME280;59881;36.722;-4.462;2023-04-02T11:46:03;101357.88;;;24.17;40.21
60725;BME280;59881;36.722;-4.462;2023-04-02T11:50:55;101370.69;;;24.15;40.51
60725;BME280;59881;36.722;-4.462;2023-04-02T11:53:29;101366.31;;;24.14;40.57
60725;BME280;59881;36.722;-4.462;2023-04-02T11:59:05;101345.63;;;24.14;40.63
60725;BME280;59881;36.722;-4.462;2023-04-02T12:03:57;101353.56;;;24.08;40.15
60725;BME280;59881;36.722;-4.462;2023-04-02T17:18:55;101213.50;;;22.40;44.87
60725;BME280;59881;36.722;-4.462;2023-04-02T17:21:27;101210.25;;;20.93;48.38
60725;BME280;59881;36.722;-4.462;2023-04-02T17:26:24;101107.38;;;18.69;53.15
60725;BME280;59881;36.722;-4.462;2023-04-02T17:28:51;101112.09;;;18.18;54.38
60725;BME280;59881;36.722;-4.462;2023-04-02T17:31:21;101214.78;;;18.90;55.34
60725;BME280;59881;36.722;-4.462;2023-04-02T17:33:47;101147.00;;;18.34;55.77
60725;BME280;59881;36.722;-4.462;2023-04-02T17:36:23;101207.66;;;18.71;56.56
60725;BME280;59881;36.722;-4.462;2023-04-02T17:52:45;101228.16;;;18.22;58.97
60725;BME280;59881;36.722;-4.462;2023-04-02T17:56:24;101175.72;;;17.82;59.29
60725;BME280;59881;36.722;-4.462;2023-04-02T18:01:11;101220.91;;;17.84;60.38
60725;BME280;59881;36.722;-4.462;2023-04-02T18:10:01;101228.91;;;17.53;61.70
60725;BME280;59881;36.722;-4.462;2023-04-02T18:20:34;101207.13;;;17.07;63.00
60725;BME280;59881;36.722;-4.462;2023-04-02T18:23:43;101239.25;;;17.15;63.36
60725;BME280;59881;36.722;-4.462;2023-04-02T18:29:39;101239.28;;;16.94;64.18
60725;BME280;59881;36.722;-4.462;2023-04-02T18:51:02;101236.13;;;16.36;67.02
60725;BME280;59881;36.722;-4.462;2023-04-02T18:53:30;101233.97;;;16.30;67.29
60725;BME280;59881;36.722;-4.462;2023-04-02T18:56:10;101244.28;;;16.23;67.41
60725;BME280;59881;36.722;-4.462;2023-04-02T19:01:17;101283.78;;;16.28;67.85
60725;BME280;59881;36.722;-4.462;2023-04-02T19:03:52;101248.38;;;16.16;67.82
60725;BME280;59881;36.722;-4.462;2023-04-02T19:06:27;101254.19;;;16.21;68.24
60725;BME280;59881;36.722;-4.462;2023-04-02T19:08:57;101265.91;;;16.19;68.13
60725;BME280;59881;36.722;-4.462;2023-04-02T19:11:25;101213.53;;;15.64;68.31
60725;BME280;59881;36.722;-4.462;2023-04-02T19:14:03;101280.41;;;16.14;68.79
60725;BME280;59881;36.722;-4.462;2023-04-02T19:19:19;101276.41;;;16.09;69.28
60725;BME280;59881;36.722;-4.462;2023-04-02T19:25:34;101288.41;;;16.03;69.66
60725;BME280;59881;36.722;-4.462;2023-04-02T19:27:45;101282.38;;;16.01;70.15
60725;BME280;59881;36.722;-4.462;2023-04-02T19:41:52;101305.56;;;15.77;70.64
60725;BME280;59881;36.722;-4.462;2023-04-02T19:44:22;101267.13;;;15.58;70.64
60725;BME280;59881;36.722;-4.462;2023-04-02T19:46:47;101313.91;;;15.83;71.07
60725;BME280;59881;36.722;-4.462;2023-04-02T19:49:30;101314.03;;;15.82;71.22
60725;BME280;59881;36.722;-4.462;2023-04-02T19:51:57;101288.53;;;15.57;71.10
60725;BME280;59881;36.722;-4.462;2023-04-02T19:54:23;101318.72;;;15.78;71.14
60725;BME280;59881;36.722;-4.462;2023-04-02T19:56:49;101204.34;;;15.01;71.21
60725;BME280;59881;36.722;-4.462;2023-04-02T19:59:14;101287.91;;;15.53;71.59
60725;BME280;59881;36.722;-4.462;2023-04-02T20:01:40;101322.72;;;15.72;71.54
60725;BME280;59881;36.722;-4.462;2023-04-02T20:04:06;101321.97;;;15.70;71.85
60725;BME280;59881;36.722;-4.462;2023-04-02T20:06:32;101246.22;;;15.20;71.44
60725;BME280;59881;36.722;-4.462;2023-04-02T20:08:58;101332.59;;;15.70;71.35
60725;BME280;59881;36.722;-4.462;2023-04-02T20:11:27;101249.72;;;15.09;71.28
60725;BME280;59881;36.722;-4.462;2023-04-02T20:13:53;101332.09;;;15.65;71.24
60725;BME280;59881;36.722;-4.462;2023-04-02T20:16:20;101317.94;;;15.53;71.13
60725;BME280;59881;36.722;-4.462;2023-04-02T20:18:47;101243.91;;;15.04;70.92
60725;BME280;59881;36.722;-4.462;2023-04-02T20:21:12;101215.19;;;14.86;71.00
60725;BME280;59881;36.722;-4.462;2023-04-02T20:23:38;101334.72;;;15.54;71.08
60725;BME280;59881;36.722;-4.462;2023-04-02T20:26:04;101347.88;;;15.56;70.92
60725;BME280;59881;36.722;-4.462;2023-04-02T20:28:30;101351.38;;;15.56;70.80
60725;BME280;59881;36.722;-4.462;2023-04-02T20:31:14;101350.91;;;15.51;70.69
60725;BME280;59881;36.722;-4.462;2023-04-02T20:33:40;101341.63;;;15.45;70.84
60725;BME280;59881;36.722;-4.462;2023-04-02T20:36:10;101362.25;;;15.53;70.78
60725;BME280;59881;36.722;-4.462;2023-04-02T20:38:37;101308.94;;;15.21;70.73
60725;BME280;59881;36.722;-4.462;2023-04-02T20:41:03;101363.94;;;15.54;70.68
60725;BME280;59881;36.722;-4.462;2023-04-02T20:43:30;101241.56;;;14.77;70.40
60725;BME280;59881;36.722;-4.462;2023-04-02T20:45:58;101337.97;;;15.35;70.29
60725;BME280;59881;36.722;-4.462;2023-04-02T20:48:26;101359.72;;;15.51;70.72
60725;BME280;59881;36.722;-4.462;2023-04-02T20:50:55;101381.19;;;15.48;70.80
60725;BME280;59881;36.722;-4.462;2023-04-02T20:53:21;101308.81;;;15.11;70.47
60725;BME280;59881;36.722;-4.462;2023-04-02T20:55:46;101353.78;;;15.37;70.35
60725;BME280;59881;36.722;-4.462;2023-04-02T20:58:16;101371.31;;;15.50;70.18
60725;BME280;59881;36.722;-4.462;2023-04-02T21:00:42;101318.97;;;15.17;70.07
60725;BME280;59881;36.722;-4.462;2023-04-02T21:03:09;101367.19;;;15.46;70.05
60725;BME280;59881;36.722;-4.462;2023-04-02T21:05:44;101365.50;;;15.45;69.72
60725;BME280;59881;36.722;-4.462;2023-04-02T21:08:10;101357.97;;;15.28;69.73
60725;BME280;59881;36.722;-4.462;2023-04-02T21:10:36;101372.00;;;15.41;69.82
60725;BME280;59881;36.722;-4.462;2023-04-02T21:13:02;101362.81;;;15.34;69.70
60725;BME280;59881;36.722;-4.462;2023-04-02T21:15:27;101306.25;;;14.98;69.59
60725;BME280;59881;36.722;-4.462;2023-04-02T21:17:53;101376.22;;;15.32;69.82
60725;BME280;59881;36.722;-4.462;2023-04-02T21:20:19;101346.94;;;15.10;69.94
60725;BME280;59881;36.722;-4.462;2023-04-02T21:22:44;101377.00;;;15.22;69.95
60725;BME280;59881;36.722;-4.462;2023-04-02T21:25:10;101245.44;;;14.36;70.19
60725;BME280;59881;36.722;-4.462;2023-04-02T21:27:35;101240.50;;;14.31;70.33
60725;BME280;59881;36.722;-4.462;2023-04-02T21:30:01;101319.44;;;14.76;70.52
60725;BME280;59881;36.722;-4.462;2023-04-02T21:32:26;101366.31;;;14.99;70.55
60725;BME280;59881;36.722;-4.462;2023-04-02T21:34:52;101320.78;;;14.57;70.28
60725;BME280;59881;36.722;-4.462;2023-04-02T21:37:19;101370.38;;;14.92;70.40
60725;BME280;59881;36.722;-4.462;2023-04-02T21:39:44;101391.16;;;14.98;70.10
60725;BME280;59881;36.722;-4.462;2023-04-02T21:42:11;101382.59;;;14.95;70.26
60725;BME280;59881;36.722;-4.462;2023-04-02T21:44:38;101346.19;;;14.73;70.26
60725;BME280;59881;36.722;-4.462;2023-04-02T21:47:04;101378.56;;;14.89;70.15
60725;BME280;59881;36.722;-4.462;2023-04-02T21:49:30;101390.34;;;14.85;70.32
60725;BME280;59881;36.722;-4.462;2023-04-02T21:51:55;101314.03;;;14.40;70.41
60725;BME280;59881;36.722;-4.462;2023-04-02T21:54:21;101384.31;;;14.83;70.82
60725;BME280;59881;36.722;-4.462;2023-04-02T21:56:48;101380.19;;;14.79;70.73
60725;BME280;59881;36.722;-4.462;2023-04-02T21:59:15;101344.81;;;14.54;70.79
60725;BME280;59881;36.722;-4.462;2023-04-02T22:01:44;101391.03;;;14.76;70.71
60725;BME280;59881;36.722;-4.462;2023-04-02T22:04:15;101343.94;;;14.42;70.77
60725;BME280;59881;36.722;-4.462;2023-04-02T22:06:42;101275.56;;;14.11;71.00
60725;BME280;59881;36.722;-4.462;2023-04-02T22:09:11;101339.66;;;14.53;70.94
60725;BME280;59881;36.722;-4.462;2023-04-02T22:11:41;101353.84;;;14.52;70.71